Time;durP1;ratioP1;P1;durP2;ratioP2;P2;SDS_P1;SDS_P2;PMS_P1;PMS_P2;Temp;Humidity;BMP_temperature;BMP_pressure;BME280_temperature;BME280_humidity;BME280_pressure;Samples;Min_cycle;Max_cycle;Signal;HPM_P1;HPM_P2
2022/12/08 00:00:10;;;;;;;;;60.00;45.75;;;;;;;;5013581;28;45420;-67
2022/12/08 00:02:35;;;;;;;;;54.00;45.00;;;;;;;;5025639;28;45531;-68
2022/12/08 00:10:28;;;;;;;;;58.00;45.50;;;;;;;;5006207;28;45737;-66
2022/12/08 00:12:54;;;;;;;;;60.25;46.00;;;;;;;;5008795;28;45437;-67
2022/12/08 00:15:19;;;;;;;;;54.00;43.00;;;;;;;;5009592;28;45532;-67
2022/12/08 00:17:44;;;;;;;;;54.50;43.00;;;;;;;;5017259;28;46232;-66
2022/12/08 00:20:10;;;;;;;;;58.50;46.75;;;;;;;;5019597;28;45700;-66
2022/12/08 00:22:35;;;;;;;;;58.25;45.25;;;;;;;;5019429;28;45614;-66
2022/12/08 00:25:00;;;;;;;;;53.75;42.75;;;;;;;;5007770;28;45647;-67
2022/12/08 00:27:25;;;;;;;;;58.00;44.00;;;;;;;;5019702;28;46195;-66
2022/12/08 00:29:51;;;;;;;;;51.25;40.00;;;;;;;;5013115;28;45362;-67
2022/12/08 00:32:16;;;;;;;;;57.25;44.75;;;;;;;;5008828;28;45615;-66
2022/12/08 00:34:41;;;;;;;;;55.25;42.50;;;;;;;;5010598;28;45720;-67
2022/12/08 00:37:06;;;;;;;;;57.00;46.75;;;;;;;;5018594;28;46132;-66
2022/12/08 00:39:32;;;;;;;;;54.75;41.50;;;;;;;;5018250;28;45851;-66
2022/12/08 00:42:12;;;;;;;;;52.25;41.25;;;;;;;;5016373;28;45488;-66
2022/12/08 00:44:38;;;;;;;;;57.00;44.75;;;;;;;;5014347;28;45438;-66
2022/12/08 00:47:03;;;;;;;;;58.50;44.25;;;;;;;;5022020;28;45799;-66
2022/12/08 00:49:28;;;;;;;;;57.25;45.00;;;;;;;;5019861;28;45752;-65
2022/12/08 00:51:54;;;;;;;;;57.00;44.50;;;;;;;;5019026;28;45736;-68
2022/12/08 00:54:19;;;;;;;;;55.00;43.75;;;;;;;;5024119;28;45895;-66
2022/12/08 00:56:45;;;;;;;;;56.00;44.00;;;;;;;;5017891;28;46090;-67
2022/12/08 00:59:10;;;;;;;;;54.25;41.00;;;;;;;;5018626;28;45461;-67
2022/12/08 01:01:36;;;;;;;;;57.50;41.00;;;;;;;;5036570;28;45838;-67
2022/12/08 01:04:02;;;;;;;;;55.00;36.25;;;;;;;;5014516;28;45567;-65
2022/12/08 01:06:28;;;;;;;;;52.25;42.25;;;;;;;;5014305;28;46553;-66
2022/12/08 01:08:53;;;;;;;;;55.00;44.00;;;;;;;;5014167;28;45693;-66
2022/12/08 01:11:18;;;;;;;;;47.25;36.00;;;;;;;;5008997;28;45631;-66
2022/12/08 01:13:44;;;;;;;;;56.00;44.00;;;;;;;;5013277;28;45631;-68
2022/12/08 01:16:17;;;;;;;;;58.75;46.00;;;;;;;;5012224;28;46899;-67
2022/12/08 01:18:42;;;;;;;;;58.00;45.00;;;;;;;;5025981;28;45398;-66
2022/12/08 01:21:08;;;;;;;;;55.25;43.25;;;;;;;;5022688;28;45533;-67
2022/12/08 01:23:34;;;;;;;;;57.75;45.75;;;;;;;;5029685;28;47394;-67
2022/12/08 01:26:03;;;;;;;;;56.50;45.50;;;;;;;;5032511;28;45668;-67
2022/12/08 01:28:29;;;;;;;;;58.25;45.00;;;;;;;;5006170;28;46124;-66
2022/12/08 01:30:54;;;;;;;;;56.25;42.00;;;;;;;;5014693;28;45390;-67
2022/12/08 01:33:20;;;;;;;;;58.75;45.50;;;;;;;;5020254;28;45603;-69
2022/12/08 01:35:45;;;;;;;;;58.50;46.00;;;;;;;;5011081;28;45427;-66
2022/12/08 01:38:10;;;;;;;;;55.00;42.25;;;;;;;;5024625;28;45721;-66
2022/12/08 01:40:35;;;;;;;;;61.00;45.75;;;;;;;;5008802;28;45672;-67
2022/12/08 01:43:01;;;;;;;;;54.75;43.00;;;;;;;;5012846;28;45557;-67
2022/12/08 01:45:27;;;;;;;;;57.75;44.50;;;;;;;;5024472;28;45522;-65
2022/12/08 01:47:55;;;;;;;;;55.50;46.25;;;;;;;;5025170;28;45403;-67
2022/12/08 01:50:21;;;;;;;;;60.00;47.00;;;;;;;;5012189;28;45438;-67
2022/12/08 01:52:53;;;;;;;;;58.25;45.25;;;;;;;;5020182;28;45778;-67
2022/12/08 01:55:25;;;;;;;;;59.50;44.25;;;;;;;;5030945;28;45656;-67
2022/12/08 01:57:59;;;;;;;;;65.25;47.25;;;;;;;;5024856;28;45845;-67
2022/12/08 02:00:24;;;;;;;;;56.00;44.25;;;;;;;;5029310;28;45459;-67
2022/12/08 02:02:58;;;;;;;;;53.00;39.75;;;;;;;;5024964;28;45394;-65
2022/12/08 02:05:25;;;;;;;;;56.25;44.25;;;;;;;;5016431;28;45885;-67
2022/12/08 02:07:51;;;;;;;;;56.75;45.25;;;;;;;;5026049;28;45758;-67
2022/12/08 02:10:18;;;;;;;;;57.50;44.75;;;;;;;;5015664;28;45583;-67
2022/12/08 02:12:43;;;;;;;;;60.00;49.00;;;;;;;;5013430;28;45710;-70
2022/12/08 02:15:09;;;;;;;;;56.50;44.50;;;;;;;;5020469;28;46131;-65
2022/12/08 02:18:13;;;;;;;;;68.75;50.50;;;;;;;;5020331;28;45374;-65
2022/12/08 02:20:44;;;;;;;;;69.25;52.25;;;;;;;;4966169;28;45746;-68
2022/12/08 02:23:09;;;;;;;;;63.25;48.50;;;;;;;;4970844;28;45710;-65
2022/12/08 02:25:50;;;;;;;;;64.00;50.25;;;;;;;;4992332;28;45591;-66
2022/12/08 02:28:19;;;;;;;;;59.75;46.25;;;;;;;;5023522;28;45509;-66
2022/12/08 02:30:44;;;;;;;;;62.00;49.00;;;;;;;;5019641;28;45539;-66
2022/12/08 02:33:35;;;;;;;;;62.00;46.25;;;;;;;;5017783;28;45703;-66
2022/12/08 02:36:04;;;;;;;;;54.25;43.00;;;;;;;;5015434;28;45613;-68
2022/12/08 02:38:29;;;;;;;;;58.50;45.25;;;;;;;;5020290;28;45796;-66
2022/12/08 02:41:10;;;;;;;;;63.25;48.50;;;;;;;;5018637;28;45740;-65
2022/12/08 02:43:45;;;;;;;;;60.00;46.00;;;;;;;;5014915;28;45396;-66
2022/12/08 02:46:13;;;;;;;;;62.75;49.50;;;;;;;;5020641;28;46171;-66
2022/12/08 02:48:39;;;;;;;;;57.75;41.75;;;;;;;;5020773;28;45642;-66
2022/12/08 02:51:04;;;;;;;;;64.50;46.75;;;;;;;;5014254;28;45822;-66
2022/12/08 02:53:31;;;;;;;;;56.00;39.75;;;;;;;;5020373;28;45843;-66
2022/12/08 02:56:07;;;;;;;;;60.50;47.75;;;;;;;;5019865;28;45787;-65
2022/12/08 02:58:35;;;;;;;;;59.50;45.50;;;;;;;;5010073;28;45423;-66
2022/12/08 03:01:19;;;;;;;;;55.00;45.00;;;;;;;;5005410;28;45518;-66
2022/12/08 03:03:50;;;;;;;;;61.50;46.25;;;;;;;;5010269;28;45394;-66
2022/12/08 03:06:38;;;;;;;;;64.25;48.75;;;;;;;;5019454;28;45496;-67
2022/12/08 03:09:24;;;;;;;;;60.50;46.75;;;;;;;;5002434;28;46041;-66
2022/12/08 03:12:04;;;;;;;;;63.50;47.00;;;;;;;;4984804;28;45753;-66
2022/12/08 03:14:30;;;;;;;;;62.25;46.00;;;;;;;;5016062;28;45452;-67
2022/12/08 03:16:56;;;;;;;;;54.75;43.75;;;;;;;;5012956;28;46656;-67
2022/12/08 03:19:36;;;;;;;;;56.50;43.25;;;;;;;;5012611;28;45445;-68
2022/12/08 03:22:03;;;;;;;;;63.75;45.00;;;;;;;;5011861;28;45364;-66
2022/12/08 03:24:36;;;;;;;;;55.25;43.25;;;;;;;;5012950;28;45823;-67
2022/12/08 03:27:05;;;;;;;;;59.75;43.25;;;;;;;;5026393;28;46318;-66
2022/12/08 03:29:31;;;;;;;;;56.50;42.75;;;;;;;;5032325;28;45447;-66
2022/12/08 03:31:59;;;;;;;;;62.50;42.25;;;;;;;;5014872;28;46005;-66
2022/12/08 03:34:26;;;;;;;;;57.00;40.00;;;;;;;;5022744;28;46243;-67
2022/12/08 03:36:51;;;;;;;;;66.50;48.00;;;;;;;;5013511;28;45620;-65
2022/12/08 03:39:30;;;;;;;;;54.00;42.00;;;;;;;;5014145;28;45734;-68
2022/12/08 03:41:56;;;;;;;;;54.75;40.00;;;;;;;;5020193;28;45788;-66
2022/12/08 03:44:21;;;;;;;;;54.75;42.50;;;;;;;;5024168;28;45584;-66
2022/12/08 03:46:46;;;;;;;;;53.25;39.75;;;;;;;;5021977;28;46188;-67
2022/12/08 03:49:11;;;;;;;;;50.75;37.00;;;;;;;;5027981;28;45667;-65
2022/12/08 03:51:37;;;;;;;;;56.75;42.00;;;;;;;;5018059;28;45498;-67
2022/12/08 03:54:02;;;;;;;;;51.75;41.25;;;;;;;;5018351;28;46796;-67
2022/12/08 03:56:29;;;;;;;;;53.75;40.50;;;;;;;;5020876;28;45996;-64
2022/12/08 03:58:55;;;;;;;;;47.75;39.00;;;;;;;;5026783;28;45422;-67
2022/12/08 04:01:20;;;;;;;;;51.75;37.00;;;;;;;;5025613;28;45248;-66
2022/12/08 04:03:46;;;;;;;;;57.25;38.50;;;;;;;;5016612;28;45645;-66
2022/12/08 04:06:11;;;;;;;;;49.25;38.25;;;;;;;;5018108;28;46696;-67
2022/12/08 04:08:36;;;;;;;;;49.25;38.50;;;;;;;;5008542;28;45700;-64
2022/12/08 04:11:02;;;;;;;;;52.75;38.75;;;;;;;;5010762;28;45345;-65
2022/12/08 04:13:27;;;;;;;;;51.50;40.00;;;;;;;;5012236;28;45540;-65
2022/12/08 04:15:52;;;;;;;;;48.50;36.00;;;;;;;;5014741;28;46898;-65
2022/12/08 04:18:18;;;;;;;;;53.75;39.00;;;;;;;;5014564;28;45729;-66
2022/12/08 04:20:44;;;;;;;;;60.75;43.00;;;;;;;;5016238;28;45352;-64
2022/12/08 04:23:09;;;;;;;;;60.25;41.75;;;;;;;;5030543;28;46103;-67
2022/12/08 04:25:35;;;;;;;;;55.75;42.25;;;;;;;;5015663;28;46485;-65
2022/12/08 04:28:00;;;;;;;;;55.00;39.00;;;;;;;;5015162;28;45806;-65
2022/12/08 04:30:25;;;;;;;;;53.00;40.50;;;;;;;;5011572;28;45835;-66
2022/12/08 04:32:51;;;;;;;;;50.75;36.75;;;;;;;;5016273;28;45327;-67
2022/12/08 04:35:16;;;;;;;;;52.75;40.75;;;;;;;;5015577;28;45465;-66
2022/12/08 04:37:43;;;;;;;;;56.50;40.00;;;;;;;;5016029;28;45686;-65
2022/12/08 04:40:08;;;;;;;;;47.50;36.00;;;;;;;;5016414;28;45888;-66
2022/12/08 04:42:34;;;;;;;;;42.00;36.25;;;;;;;;5016372;28;45278;-67
2022/12/08 04:44:59;;;;;;;;;52.50;41.25;;;;;;;;5014790;28;45554;-65
2022/12/08 04:47:24;;;;;;;;;51.75;39.75;;;;;;;;5010693;28;45316;-66
2022/12/08 04:49:50;;;;;;;;;49.50;39.50;;;;;;;;5015441;28;45826;-66
2022/12/08 04:52:15;;;;;;;;;57.50;39.50;;;;;;;;5025629;28;45319;-65
2022/12/08 04:54:40;;;;;;;;;50.25;39.25;;;;;;;;5010555;28;45485;-66
2022/12/08 04:57:05;;;;;;;;;48.00;37.00;;;;;;;;5029915;28;45779;-65
2022/12/08 04:59:31;;;;;;;;;51.25;38.50;;;;;;;;5034639;28;45359;-67
2022/12/08 05:01:56;;;;;;;;;52.25;37.00;;;;;;;;5022726;28;45830;-65
2022/12/08 05:04:21;;;;;;;;;48.50;38.50;;;;;;;;5018148;28;47189;-66
2022/12/08 05:06:46;;;;;;;;;36.25;34.25;;;;;;;;5016076;28;45817;-66
2022/12/08 05:09:12;;;;;;;;;45.75;35.50;;;;;;;;5014131;28;45874;-67
2022/12/08 05:11:40;;;;;;;;;40.25;35.25;;;;;;;;5022312;28;46307;-66
2022/12/08 05:14:07;;;;;;;;;51.00;39.75;;;;;;;;5002760;28;48102;-67
2022/12/08 05:16:33;;;;;;;;;46.00;36.75;;;;;;;;5016656;28;45959;-66
2022/12/08 05:18:58;;;;;;;;;49.75;35.25;;;;;;;;5016508;28;45304;-67
2022/12/08 05:21:23;;;;;;;;;42.00;34.33;;;;;;;;5027994;28;46039;-66
2022/12/08 05:23:49;;;;;;;;;39.33;33.00;;;;;;;;5015952;28;46433;-67
2022/12/08 05:26:14;;;;;;;;;50.75;38.25;;;;;;;;5020832;28;45275;-66
2022/12/08 05:28:39;;;;;;;;;35.00;28.33;;;;;;;;5015715;28;45450;-66
2022/12/08 05:31:04;;;;;;;;;47.75;36.00;;;;;;;;5019378;28;45412;-66
2022/12/08 05:33:30;;;;;;;;;42.50;34.25;;;;;;;;5015361;28;45312;-67
2022/12/08 05:35:55;;;;;;;;;43.75;33.25;;;;;;;;5014595;28;46338;-65
2022/12/08 05:38:20;;;;;;;;;39.00;36.00;;;;;;;;5013703;28;46257;-65
2022/12/08 05:40:45;;;;;;;;;43.00;33.67;;;;;;;;5013501;28;45496;-64
2022/12/08 05:43:11;;;;;;;;;28.33;25.33;;;;;;;;5029186;28;46555;-66
2022/12/08 05:45:36;;;;;;;;;38.33;30.67;;;;;;;;5026575;28;45886;-68
2022/12/08 05:48:01;;;;;;;;;37.33;35.00;;;;;;;;5028299;28;45991;-67
2022/12/08 05:50:27;;;;;;;;;42.33;33.00;;;;;;;;5029301;28;45613;-67
2022/12/08 05:52:52;;;;;;;;;36.50;31.50;;;;;;;;5022532;28;45616;-65
2022/12/08 05:55:17;;;;;;;;;41.75;33.50;;;;;;;;5026897;28;45445;-66
2022/12/08 05:57:43;;;;;;;;;36.50;31.75;;;;;;;;5017902;28;45966;-64
2022/12/08 06:00:09;;;;;;;;;26.00;26.00;;;;;;;;5024514;28;45951;-66
2022/12/08 06:02:34;;;;;;;;;34.75;27.50;;;;;;;;5021726;28;46258;-66
2022/12/08 06:05:00;;;;;;;;;38.00;31.00;;;;;;;;5027960;28;45809;-65
2022/12/08 06:07:25;;;;;;;;;34.00;28.33;;;;;;;;5024926;28;46036;-67
2022/12/08 06:09:50;;;;;;;;;35.33;28.00;;;;;;;;5024752;28;45608;-65
2022/12/08 06:12:15;;;;;;;;;39.33;27.33;;;;;;;;5021901;28;47474;-67
2022/12/08 06:14:41;;;;;;;;;33.33;28.00;;;;;;;;5027182;28;45409;-65
2022/12/08 06:17:07;;;;;;;;;37.75;28.00;;;;;;;;5009538;28;45345;-69
2022/12/08 06:19:32;;;;;;;;;30.33;24.67;;;;;;;;5023530;28;45550;-68
2022/12/08 06:21:57;;;;;;;;;31.33;26.00;;;;;;;;5010966;28;45873;-67
2022/12/08 06:24:23;;;;;;;;;29.67;26.00;;;;;;;;5016017;28;45418;-68
2022/12/08 06:26:48;;;;;;;;;35.67;30.00;;;;;;;;5001551;28;45616;-65
2022/12/08 06:29:14;;;;;;;;;29.33;25.00;;;;;;;;5002530;28;45392;-65
2022/12/08 06:31:39;;;;;;;;;32.00;25.00;;;;;;;;4998969;28;48241;-67
2022/12/08 06:34:05;;;;;;;;;34.00;27.00;;;;;;;;5002660;28;45418;-66
2022/12/08 06:36:30;;;;;;;;;26.67;22.33;;;;;;;;5007845;28;45984;-66
2022/12/08 06:38:56;;;;;;;;;25.00;21.00;;;;;;;;5010940;28;45963;-67
2022/12/08 06:41:21;;;;;;;;;33.67;26.33;;;;;;;;5008331;28;45469;-67
2022/12/08 06:43:46;;;;;;;;;29.00;26.33;;;;;;;;5001578;28;45405;-68
2022/12/08 06:46:13;;;;;;;;;32.00;24.00;;;;;;;;5002345;28;45919;-65
2022/12/08 06:48:38;;;;;;;;;29.33;23.33;;;;;;;;5012100;28;47342;-68
2022/12/08 06:51:05;;;;;;;;;23.67;21.33;;;;;;;;5006160;28;45570;-67
2022/12/08 06:53:30;;;;;;;;;26.67;20.67;;;;;;;;5023431;28;45783;-68
2022/12/08 06:55:55;;;;;;;;;30.00;26.67;;;;;;;;5027641;28;45617;-68
2022/12/08 06:58:21;;;;;;;;;26.33;24.33;;;;;;;;5014493;28;45438;-69
2022/12/08 07:00:46;;;;;;;;;27.67;25.33;;;;;;;;5016518;28;48316;-66
2022/12/08 07:03:12;;;;;;;;;27.67;23.00;;;;;;;;5012712;28;45756;-68
2022/12/08 07:05:37;;;;;;;;;29.33;26.00;;;;;;;;5014275;28;45413;-68
2022/12/08 07:08:03;;;;;;;;;24.00;23.33;;;;;;;;5025245;28;45940;-69
2022/12/08 07:10:29;;;;;;;;;27.33;21.67;;;;;;;;5023003;28;45685;-68
2022/12/08 07:12:54;;;;;;;;;29.00;21.67;;;;;;;;5018651;28;45711;-68
2022/12/08 07:15:19;;;;;;;;;26.00;20.00;;;;;;;;5003393;28;45532;-70
2022/12/08 07:17:45;;;;;;;;;23.67;22.00;;;;;;;;5022362;28;46132;-69
2022/12/08 07:20:11;;;;;;;;;23.33;20.33;;;;;;;;5021389;28;45991;-69
2022/12/08 07:22:36;;;;;;;;;22.00;20.00;;;;;;;;5026529;28;45588;-70
2022/12/08 07:25:02;;;;;;;;;28.67;26.00;;;;;;;;5020374;28;45734;-70
2022/12/08 07:27:27;;;;;;;;;31.00;27.67;;;;;;;;5008619;28;46207;-68
2022/12/08 07:29:52;;;;;;;;;26.00;21.67;;;;;;;;5018898;28;45704;-69
2022/12/08 07:32:17;;;;;;;;;28.00;25.33;;;;;;;;5025349;28;45781;-70
2022/12/08 07:34:43;;;;;;;;;25.67;24.67;;;;;;;;5018899;28;45363;-69
2022/12/08 07:37:08;;;;;;;;;25.67;20.67;;;;;;;;5021052;28;45558;-69
2022/12/08 07:39:33;;;;;;;;;31.33;26.00;;;;;;;;5020869;28;45878;-68
2022/12/08 07:41:59;;;;;;;;;27.33;24.33;;;;;;;;5027190;28;45770;-68
2022/12/08 07:44:24;;;;;;;;;28.33;25.33;;;;;;;;5022128;28;45628;-69
2022/12/08 07:46:49;;;;;;;;;33.00;28.00;;;;;;;;5028814;28;45394;-70
2022/12/08 07:49:15;;;;;;;;;33.33;26.67;;;;;;;;5019160;28;45901;-68
2022/12/08 07:51:40;;;;;;;;;34.67;29.00;;;;;;;;5020590;28;45742;-69
2022/12/08 07:54:05;;;;;;;;;42.00;29.67;;;;;;;;5026698;28;45648;-70
2022/12/08 07:56:30;;;;;;;;;33.00;28.33;;;;;;;;5017432;28;45808;-69
2022/12/08 07:58:55;;;;;;;;;35.67;29.67;;;;;;;;5017332;28;45849;-70
2022/12/08 08:01:25;;;;;;;;;35.33;29.67;;;;;;;;5020680;28;45515;-68
2022/12/08 08:03:50;;;;;;;;;34.67;30.67;;;;;;;;5016371;28;45555;-69
2022/12/08 08:06:16;;;;;;;;;42.00;29.67;;;;;;;;5010539;28;46598;-70
2022/12/08 08:08:41;;;;;;;;;34.33;27.00;;;;;;;;5010529;28;47021;-69
2022/12/08 08:11:07;;;;;;;;;40.67;30.33;;;;;;;;5017484;28;45504;-69
2022/12/08 08:13:32;;;;;;;;;37.33;27.00;;;;;;;;5012896;28;45643;-69
2022/12/08 08:16:04;;;;;;;;;33.33;26.67;;;;;;;;5022553;28;45584;-69
2022/12/08 08:18:30;;;;;;;;;33.67;30.00;;;;;;;;5009894;28;46278;-68
2022/12/08 08:20:55;;;;;;;;;32.00;24.00;;;;;;;;5032885;22;45750;-83
2022/12/08 08:23:21;;;;;;;;;36.67;28.67;;;;;;;;5026937;28;45841;-82
2022/12/08 08:25:46;;;;;;;;;36.33;26.33;;;;;;;;5038101;28;45921;-83
2022/12/08 08:28:12;;;;;;;;;35.00;28.00;;;;;;;;5044379;28;45729;-83
2022/12/08 08:30:37;;;;;;;;;29.67;26.33;;;;;;;;5041263;28;45773;-82
2022/12/08 08:33:03;;;;;;;;;33.33;27.00;;;;;;;;5033536;28;45733;-82
2022/12/08 08:35:32;;;;;;;;;29.67;25.33;;;;;;;;5029833;28;45922;-85
2022/12/08 08:37:59;;;;;;;;;30.67;25.33;;;;;;;;5030855;28;46397;-84
2022/12/08 08:40:25;;;;;;;;;37.67;30.00;;;;;;;;5030734;28;45957;-82
2022/12/08 08:42:50;;;;;;;;;35.33;29.33;;;;;;;;5023684;28;45539;-82
2022/12/08 08:45:15;;;;;;;;;43.33;31.33;;;;;;;;5036834;28;45366;-83
2022/12/08 08:47:41;;;;;;;;;33.33;29.67;;;;;;;;5036578;28;48467;-84
2022/12/08 08:50:06;;;;;;;;;33.33;28.33;;;;;;;;5029906;28;45451;-83
2022/12/08 08:52:32;;;;;;;;;37.00;29.33;;;;;;;;5027970;28;45496;-83
2022/12/08 08:54:57;;;;;;;;;27.33;25.00;;;;;;;;5045928;28;45676;-83
2022/12/08 08:57:23;;;;;;;;;34.00;25.00;;;;;;;;5037604;28;45583;-84
2022/12/08 08:59:49;;;;;;;;;35.00;29.67;;;;;;;;5030588;28;45731;-85
2022/12/08 09:02:16;;;;;;;;;39.50;32.75;;;;;;;;5040674;28;45467;-83
2022/12/08 09:04:41;;;;;;;;;39.67;30.67;;;;;;;;5043805;28;46012;-83
2022/12/08 09:07:06;;;;;;;;;35.67;26.00;;;;;;;;5032039;28;46259;-83
2022/12/08 09:09:32;;;;;;;;;36.33;29.00;;;;;;;;5032421;28;45653;-84
2022/12/08 09:11:57;;;;;;;;;30.33;25.67;;;;;;;;5035390;28;45818;-83
2022/12/08 09:14:26;;;;;;;;;34.33;28.33;;;;;;;;5038407;28;45384;-85
2022/12/08 09:16:52;;;;;;;;;37.67;31.33;;;;;;;;5038473;28;45896;-82
2022/12/08 09:19:17;;;;;;;;;29.33;24.33;;;;;;;;5043815;28;45636;-84
2022/12/08 09:21:43;;;;;;;;;32.67;28.00;;;;;;;;5022950;28;45809;-83
2022/12/08 09:24:14;;;;;;;;;36.67;28.00;;;;;;;;5032439;28;45900;-86
2022/12/08 09:26:40;;;;;;;;;34.67;27.67;;;;;;;;5037529;28;47119;-84
2022/12/08 09:29:06;;;;;;;;;31.33;28.00;;;;;;;;5044301;28;45750;-84
2022/12/08 09:31:31;;;;;;;;;33.67;30.33;;;;;;;;5037592;28;45414;-84
2022/12/08 09:33:58;;;;;;;;;39.25;31.00;;;;;;;;5033268;28;45810;-84
2022/12/08 09:36:23;;;;;;;;;33.33;29.33;;;;;;;;5038760;28;45720;-83
2022/12/08 09:38:56;;;;;;;;;39.00;33.00;;;;;;;;5039516;28;45747;-86
2022/12/08 09:41:21;;;;;;;;;39.33;30.00;;;;;;;;5042770;28;45495;-84
2022/12/08 09:44:16;;;;;;;;;29.33;24.33;;;;;;;;5040988;28;45707;-83
2022/12/08 09:46:42;;;;;;;;;38.00;33.33;;;;;;;;5017796;28;47094;-84
2022/12/08 09:49:13;;;;;;;;;42.33;32.33;;;;;;;;5040114;28;45511;-83
2022/12/08 09:51:40;;;;;;;;;33.00;29.00;;;;;;;;5037527;28;45775;-85
2022/12/08 09:54:26;;;;;;;;;38.00;33.67;;;;;;;;5048252;28;45466;-81
2022/12/08 09:56:54;;;;;;;;;44.50;36.50;;;;;;;;5041402;28;45381;-83
2022/12/08 09:59:24;;;;;;;;;36.33;34.00;;;;;;;;5041162;28;45533;-83
2022/12/08 10:01:50;;;;;;;;;38.75;32.25;;;;;;;;5038458;28;45744;-82
2022/12/08 10:04:24;;;;;;;;;29.00;24.33;;;;;;;;5048300;28;45737;-80
2022/12/08 10:07:06;;;;;;;;;35.33;29.33;;;;;;;;5040030;28;46430;-82
2022/12/08 10:09:46;;;;;;;;;37.00;29.33;;;;;;;;5043346;28;45402;-81
2022/12/08 10:12:18;;;;;;;;;33.00;30.67;;;;;;;;5049682;28;45645;-81
2022/12/08 10:14:55;;;;;;;;;29.67;26.67;;;;;;;;5038100;28;45783;-81
2022/12/08 10:17:30;;;;;;;;;33.33;29.67;;;;;;;;5042116;28;46199;-82
2022/12/08 10:19:58;;;;;;;;;41.00;31.67;;;;;;;;5036269;28;45739;-81
2022/12/08 10:22:25;;;;;;;;;34.33;29.67;;;;;;;;5035158;28;45518;-81
2022/12/08 10:24:59;;;;;;;;;35.33;31.00;;;;;;;;5033666;28;45471;-81
2022/12/08 10:27:27;;;;;;;;;36.00;30.67;;;;;;;;5037964;28;46550;-81
2022/12/08 10:29:53;;;;;;;;;32.50;28.75;;;;;;;;5030159;28;45507;-82
2022/12/08 10:32:23;;;;;;;;;37.67;29.67;;;;;;;;5029521;28;45411;-85
2022/12/08 10:34:59;;;;;;;;;31.67;28.33;;;;;;;;5030733;28;47289;-82
2022/12/08 10:37:31;;;;;;;;;30.00;29.00;;;;;;;;5028625;28;47222;-83
2022/12/08 10:40:11;;;;;;;;;30.67;23.67;;;;;;;;5032134;28;45870;-83
2022/12/08 10:42:38;;;;;;;;;30.33;24.67;;;;;;;;5031041;28;45369;-83
2022/12/08 10:45:43;;;;;;;;;35.33;30.33;;;;;;;;5032879;28;46505;-83
2022/12/08 10:48:17;;;;;;;;;34.33;26.67;;;;;;;;4958199;28;45963;-82
2022/12/08 10:50:47;;;;;;;;;32.67;29.00;;;;;;;;4950165;28;46535;-83
2022/12/08 10:53:14;;;;;;;;;33.33;29.00;;;;;;;;4997041;28;45562;-84
2022/12/08 10:55:41;;;;;;;;;34.50;27.00;;;;;;;;5035499;28;45425;-83
2022/12/08 10:58:23;;;;;;;;;35.33;24.00;;;;;;;;5034081;28;45581;-84
2022/12/08 11:00:50;;;;;;;;;30.00;25.67;;;;;;;;5028186;28;46016;-83
2022/12/08 11:03:25;;;;;;;;;39.33;35.00;;;;;;;;5035541;28;45483;-84
2022/12/08 11:05:54;;;;;;;;;29.67;29.00;;;;;;;;5042704;28;45819;-84
2022/12/08 11:08:20;;;;;;;;;32.00;29.67;;;;;;;;5048286;28;46231;-83
2022/12/08 11:10:46;;;;;;;;;35.33;27.00;;;;;;;;5043073;28;45609;-83
2022/12/08 11:13:29;;;;;;;;;;;;;;;;;;;;;
2022/12/08 11:16:01;;;;;;;;;34.00;32.00;;;;;;;;5043837;28;74875;-84
2022/12/08 11:18:30;;;;;;;;;32.33;29.67;;;;;;;;5042978;28;45423;-83
2022/12/08 11:21:09;;;;;;;;;34.33;28.67;;;;;;;;5037457;28;45706;-83
2022/12/08 11:23:35;;;;;;;;;30.67;27.67;;;;;;;;5037448;28;45506;-84
2022/12/08 11:26:27;;;;;;;;;39.00;31.67;;;;;;;;5042349;28;47101;-83
2022/12/08 11:28:56;;;;;;;;;45.67;30.33;;;;;;;;5031210;28;45708;-83
2022/12/08 11:31:21;;;;;;;;;42.00;33.00;;;;;;;;5029343;28;45413;-83
2022/12/08 11:33:47;;;;;;;;;38.33;32.00;;;;;;;;5032886;28;45679;-84
2022/12/08 11:36:14;;;;;;;;;34.00;29.33;;;;;;;;5031780;28;45526;-84
2022/12/08 11:38:41;;;;;;;;;36.33;30.67;;;;;;;;5030317;28;47234;-83
2022/12/08 11:41:12;;;;;;;;;38.00;32.67;;;;;;;;5032560;28;44936;-81
2022/12/08 11:43:41;;;;;;;;;39.00;29.67;;;;;;;;5030781;28;45620;-83
2022/12/08 11:46:22;;;;;;;;;39.33;32.00;;;;;;;;5029579;28;46775;-83
2022/12/08 11:49:00;;;;;;;;;33.67;30.00;;;;;;;;5039885;28;45919;-84
2022/12/08 11:51:31;;;;;;;;;38.67;31.67;;;;;;;;5036353;28;45791;-82
2022/12/08 11:54:15;;;;;;;;;45.67;35.67;;;;;;;;5043455;28;45542;-83
2022/12/08 11:56:46;;;;;;;;;39.67;31.00;;;;;;;;5028254;28;45783;-84
2022/12/08 11:59:18;;;;;;;;;41.67;32.33;;;;;;;;5025959;28;45632;-84
2022/12/08 12:01:44;;;;;;;;;40.33;33.67;;;;;;;;5031159;28;45770;-83
2022/12/08 12:04:12;;;;;;;;;40.00;33.33;;;;;;;;5039886;28;45844;-82
2022/12/08 12:06:46;;;;;;;;;38.00;32.67;;;;;;;;5031449;28;45417;-83
2022/12/08 12:09:24;;;;;;;;;43.00;34.00;;;;;;;;5034329;28;47254;-83
2022/12/08 12:14:33;;;;;;;;;38.00;28.00;;;;;;;;5021265;28;45597;-84
2022/12/08 12:17:04;;;;;;;;;36.67;31.00;;;;;;;;5026585;28;45480;-82
2022/12/08 12:19:34;;;;;;;;;32.00;29.00;;;;;;;;5021179;28;45476;-82
2022/12/08 12:22:12;;;;;;;;;36.00;30.33;;;;;;;;5027160;28;45825;-82
2022/12/08 12:24:41;;;;;;;;;37.00;31.33;;;;;;;;5022741;28;45725;-82
2022/12/08 12:27:12;;;;;;;;;32.00;28.00;;;;;;;;5035605;28;45587;-82
2022/12/08 12:29:44;;;;;;;;;41.33;32.33;;;;;;;;5030617;28;46361;-82
2022/12/08 12:32:11;;;;;;;;;34.33;31.00;;;;;;;;5044612;28;45673;-82
2022/12/08 12:34:47;;;;;;;;;34.00;32.00;;;;;;;;5032741;28;45748;-83
2022/12/08 12:37:16;;;;;;;;;32.00;27.33;;;;;;;;5034967;28;44765;-84
2022/12/08 12:39:45;;;;;;;;;33.00;28.33;;;;;;;;5031986;28;46830;-82
2022/12/08 12:42:30;;;;;;;;;34.67;31.00;;;;;;;;5038274;28;45864;-81
2022/12/08 12:45:10;;;;;;;;;31.00;27.67;;;;;;;;5053510;28;45816;-82
2022/12/08 12:47:54;;;;;;;;;30.67;27.00;;;;;;;;5042741;28;45545;-82
2022/12/08 12:50:34;;;;;;;;;34.00;29.00;;;;;;;;5027660;28;46094;-82
2022/12/08 12:52:59;;;;;;;;;38.00;30.00;;;;;;;;5033251;28;45798;-83
2022/12/08 12:55:25;;;;;;;;;35.33;30.00;;;;;;;;5035477;28;45496;-81
2022/12/08 12:57:55;;;;;;;;;39.00;30.33;;;;;;;;5039602;28;45985;-81
2022/12/08 13:00:23;;;;;;;;;32.67;27.67;;;;;;;;5028249;28;46094;-82
2022/12/08 13:02:49;;;;;;;;;31.00;30.00;;;;;;;;5036897;28;45589;-82
2022/12/08 13:05:21;;;;;;;;;37.67;31.00;;;;;;;;5042395;28;45806;-81
2022/12/08 13:07:49;;;;;;;;;30.67;28.00;;;;;;;;5041122;28;46465;-82
2022/12/08 13:10:15;;;;;;;;;35.67;30.00;;;;;;;;5034414;28;47098;-82
2022/12/08 13:12:44;;;;;;;;;42.00;34.33;;;;;;;;5035009;28;45910;-84
2022/12/08 13:15:19;;;;;;;;;31.33;28.67;;;;;;;;5037261;28;45930;-83
2022/12/08 13:17:46;;;;;;;;;25.33;17.00;;;;;;;;5039146;28;45780;-83
2022/12/08 13:20:19;;;;;;;;;36.00;28.33;;;;;;;;5043627;28;46360;-83
2022/12/08 13:22:47;;;;;;;;;28.67;25.00;;;;;;;;5060277;28;45794;-83
2022/12/08 13:25:38;;;;;;;;;34.33;27.67;;;;;;;;5028148;28;45475;-83
2022/12/08 13:28:13;;;;;;;;;33.00;26.00;;;;;;;;5042747;28;45398;-85
2022/12/08 13:30:46;;;;;;;;;37.67;28.00;;;;;;;;5046939;28;46922;-83
2022/12/08 13:33:31;;;;;;;;;34.00;30.00;;;;;;;;5046343;28;45467;-84
2022/12/08 13:36:00;;;;;;;;;33.67;29.00;;;;;;;;5050203;27;45407;-84
2022/12/08 13:38:28;;;;;;;;;33.67;27.00;;;;;;;;5042175;28;45623;-83
2022/12/08 13:40:54;;;;;;;;;34.33;29.67;;;;;;;;5040838;28;46305;-83
2022/12/08 13:43:29;;;;;;;;;31.00;29.67;;;;;;;;5049021;28;46337;-82
2022/12/08 13:45:58;;;;;;;;;40.50;31.50;;;;;;;;5032034;28;45534;-82
2022/12/08 13:48:31;;;;;;;;;37.67;30.33;;;;;;;;5048194;28;45504;-82
2022/12/08 13:51:17;;;;;;;;;29.00;26.00;;;;;;;;5042404;28;45658;-82
2022/12/08 13:53:44;;;;;;;;;32.00;27.00;;;;;;;;5015064;28;45641;-83
2022/12/08 13:56:12;;;;;;;;;36.00;27.33;;;;;;;;5037263;28;45787;-84
2022/12/08 13:58:38;;;;;;;;;36.67;30.33;;;;;;;;5049601;28;45798;-83
2022/12/08 14:01:04;;;;;;;;;37.33;30.67;;;;;;;;5047929;28;45471;-82
2022/12/08 14:03:32;;;;;;;;;30.67;27.33;;;;;;;;5044881;28;44776;-83
2022/12/08 14:06:01;;;;;;;;;36.33;29.00;;;;;;;;5043988;28;45700;-84
2022/12/08 14:08:26;;;;;;;;;27.33;25.67;;;;;;;;5043431;28;45949;-83
2022/12/08 14:10:56;;;;;;;;;34.33;30.67;;;;;;;;5041539;28;45711;-84
2022/12/08 14:13:24;;;;;;;;;41.33;30.67;;;;;;;;5042696;28;45612;-84
2022/12/08 14:15:49;;;;;;;;;34.67;29.67;;;;;;;;5037637;28;45353;-82
2022/12/08 14:18:25;;;;;;;;;36.33;29.00;;;;;;;;5035703;28;46883;-82
2022/12/08 14:21:01;;;;;;;;;33.67;28.00;;;;;;;;5037681;28;47335;-83
2022/12/08 14:23:26;;;;;;;;;32.00;30.00;;;;;;;;5034458;28;45810;-83
2022/12/08 14:25:52;;;;;;;;;33.00;29.33;;;;;;;;5040738;28;45553;-82
2022/12/08 14:28:18;;;;;;;;;31.00;26.67;;;;;;;;5049947;28;44903;-81
2022/12/08 14:30:44;;;;;;;;;35.33;31.67;;;;;;;;5041800;28;46115;-82
2022/12/08 14:33:13;;;;;;;;;30.33;24.00;;;;;;;;5039690;28;45450;-82